Terminal Aerodrome Forecast
Issued by NWS

Home | Current Version | Previous Version | Text Only | Print | Product List | Glossary On
Versions: 1 2 3 4 5 6 7 8 9 10 11 12 13 14 15 16 17 18 19 20 21
000
FTUS45 KGJT 211135
TAFASE
TAF
KASE 211135Z 2112/2212 00000KT P6SM VCSH SCT003 OVC008
      TEMPO 2112/2115 4SM -SN BR SCT001 OVC008
     FM211500 34004KT P6SM -SN SCT009 BKN020
     FM211700 01004KT P6SM VCSH BKN030 BKN050
     FM212000 36006KT P6SM BKN040
     FM220200 21005KT P6SM FEW050 SCT090
     FM220400 19004KT P6SM SKC=

USA.gov is the U.S. government's official web portal to all federal, state and local government web resources and services.